ROMMA est une association bénévole à but non lucratif. Votre soutien est indispensable : ADHERER à ROMMA ou FAIRE un DON

Peyrus - (26, Drôme)

Vercors Ouest (430 m)   Longitude: 05°06'28"E   Latitude: 44°54'41"N Station partenaire n°83
 

Détail journalier du     <<     >>

Température Precipitation Humidité Pression Vent Dir Rafale Dir. rafale Second capteur de température situé à 410 m
Heure (°C) (mm) (%) (hPa) (km/h) (km/h) (°C)
01:00 4.2058100308ONO1.7
02:00 1.5080100308NNO-1.7
03:00 0.3084100300-1.7
04:00 -0.2087100300-2.2
05:00 -0.4086100300-2.8
06:00 -0.3085100300-2.8
07:00 -0.2085100300-2.8
08:00 -0.3086100300-2.2
09:00 3.00821002001.7
10:00 5.807510031N11NNO5.6
11:00 6.407410042N11N7.2
12:00 8.306810041N11N8.9
13:00 9.106710032N15N10.6
14:00 10.506310032NNO16NO11.7
15:00 11.105910022N13N12.2
16:00 11.606210021NNO8NNO12.2
17:00 13.605210014NNO16NNE15.0
18:00 13.305210014ENE15E13.9
19:00 12.306310013E24ESE12.2
20:00 10.406910022SE19SSO9.4
21:00 10.107410023S16S9.4
22:00 9.607610031SSE16S8.9
23:00 8.807710031SE13SE6.7
minuit 8.60751003010SE5.6

Graphique du 05-04-2019

 

Serveur OMMA